Terminal Aerodrome Forecast
Issued by NWS Sioux Falls, SD

Home | Current Version | Previous Version | Graphics & Text | Print | Product List | Glossary On
Versions: 1 2 3 4 5 6 7 8 9 10 11 12 13 14 15 16
000
FTUS43 KFSD 220520
TAFSUX
TAF
KSUX 220520Z 2206/2306 15008KT P6SM SKC
     FM220800 15008KT P6SM SKC WS020/19035KT
     FM221400 17013G19KT P6SM FEW200
     FM221800 18017G28KT P6SM SCT250
     FM230400 17012KT P6SM BKN250=

USA.gov is the U.S. government's official web portal to all federal, state and local government web resources and services.